Startpagina
METAR-TAF:

METAR-TAF

Vliegvelden :

Maun Airport

Maun, Botswana

breedte: 19-59S, lengte: 023-25E, hoogte: 945 m

Actueel weer

Dit bericht is 39 minuten geleden gemaakt, om 18:00 UTC
Wind 4 kt uit het oostzuidoosten
Temperatuur 25°C
Vochtigheid 89%
Druk 1015 hPa
Zicht 10 km of meer
Weinig wolken op 3000 ft, Cumulonimbus.
Gebroken wolken op 7000 ft

METAR: FBMN 181800Z 12004KT 9999 FEW030CB BKN070 25/23 Q1015

Tijdstip: 20:39 (18:39 UTC)

Verwachting

Dit bericht is 6 uur en het 39 minuten geleden gemaakt, om 12:00 UTC
Verwachting geldig van 18 om 15 UTC tot 18 om 24 UTC
Wind 10 kt uit het oosten
Zicht 10 km of meer
Verspreide wolken op 3000 ft
Weinig wolken op 3500 ft, Cumulonimbus.
Verspreide wolken op 7000 ft
Kans 30% :
Tijdelijke
van 18 om 15 UTC tot 18 om 24 UTC
onweer, regen

TAF: FBMN 181200Z 1815/1824 08010KT 9999 SCT030 FEW035CB SCT070 PROB30 TEMPO 1815/1824 TSRA

Waarnemingen en weersverwachtingen van meer dan 4000 vliegvelden (METAR en TAF).

De beschikbare stations zijn de gele en rode punten op de kaart.

Ga met uw muis naar het station om de naam te zien.

Klik dan om waarnemingen en weersverwachtingen te zien.

kaart wijzigen: klik op de groene knoppen met een zwart kruis om in te zoomen, op de groene knop met een streepje om uit te zoomen of op de groene pijlen voor aangrenzende kaarten.


METAR-TAF: